Time;durP1;ratioP1;P1;durP2;ratioP2;P2;SDS_P1;SDS_P2;PMS_P1;PMS_P2;Temp;Humidity;BMP_temperature;BMP_pressure;BME280_temperature;BME280_humidity;BME280_pressure;Samples;Min_cycle;Max_cycle;Signal;HPM_P1;HPM_P2
2022/07/11 00:01:00;;;;;;;4.13;1.70;;;16.90;99.90;;;;;;5070142;28;20449;-66
2022/07/11 00:03:28;;;;;;;5.10;1.37;;;16.90;99.90;;;;;;5069928;28;20459;-65
2022/07/11 00:05:55;;;;;;;2.70;1.20;;;16.80;99.90;;;;;;5069856;28;20505;-66
2022/07/11 00:08:22;;;;;;;3.40;1.30;;;16.80;99.90;;;;;;5070124;28;20821;-66
2022/07/11 00:10:48;;;;;;;2.40;1.53;;;16.80;99.90;;;;;;5069602;28;20447;-66
2022/07/11 00:13:15;;;;;;;4.40;1.63;;;16.80;99.90;;;;;;5069728;28;20467;-65
2022/07/11 00:15:42;;;;;;;3.60;1.80;;;16.80;99.90;;;;;;5070155;28;20451;-66
2022/07/11 00:18:09;;;;;;;2.50;1.80;;;16.80;99.90;;;;;;5070142;28;20455;-66
2022/07/11 00:20:37;;;;;;;2.70;1.70;;;16.70;99.90;;;;;;5069737;28;20451;-66
2022/07/11 00:23:03;;;;;;;2.77;1.50;;;16.70;99.90;;;;;;5069623;28;20845;-66
2022/07/11 00:25:30;;;;;;;3.20;1.50;;;16.70;99.90;;;;;;5069739;28;20826;-66
2022/07/11 00:27:57;;;;;;;3.70;2.40;;;16.70;99.90;;;;;;5070106;28;20487;-66
2022/07/11 00:30:24;;;;;;;2.40;1.73;;;16.70;99.90;;;;;;5069235;28;20985;-66
2022/07/11 00:32:51;;;;;;;3.10;1.73;;;16.60;99.90;;;;;;5069729;28;20446;-65
2022/07/11 00:35:18;;;;;;;2.53;1.60;;;16.60;99.90;;;;;;5069870;28;20451;-66
2022/07/11 00:37:46;;;;;;;4.00;1.60;;;16.50;99.90;;;;;;5069517;28;20455;-66
2022/07/11 00:40:12;;;;;;;2.73;1.73;;;16.50;99.90;;;;;;5069777;28;20944;-65
2022/07/11 00:42:39;;;;;;;2.47;2.00;;;16.40;99.90;;;;;;5069752;28;20450;-65
2022/07/11 00:45:07;;;;;;;2.23;1.47;;;16.40;99.90;;;;;;5070041;28;20909;-66
2022/07/11 00:47:34;;;;;;;2.73;2.20;;;16.30;99.90;;;;;;5069655;28;20486;-66
2022/07/11 00:50:01;;;;;;;4.20;1.90;;;16.40;99.90;;;;;;5069231;28;20549;-65
2022/07/11 00:52:27;;;;;;;3.57;1.80;;;16.40;99.90;;;;;;5069712;28;20454;-66
2022/07/11 00:54:56;;;;;;;3.60;1.83;;;16.40;99.90;;;;;;5069251;28;20900;-66
2022/07/11 00:57:23;;;;;;;3.80;1.80;;;16.40;99.90;;;;;;5069665;28;20516;-65
2022/07/11 00:59:51;;;;;;;2.73;1.50;;;16.30;99.90;;;;;;5069267;28;20538;-66
2022/07/11 01:02:18;;;;;;;3.23;2.10;;;16.30;99.90;;;;;;5069540;28;20478;-66
2022/07/11 01:04:44;;;;;;;3.73;2.13;;;16.30;99.90;;;;;;5069436;28;20469;-66
2022/07/11 01:07:11;;;;;;;3.23;2.13;;;16.30;99.90;;;;;;5073067;28;20475;-66
2022/07/11 01:09:38;;;;;;;2.73;2.10;;;16.20;99.90;;;;;;5073209;28;20450;-65
2022/07/11 01:12:07;;;;;;;3.77;2.20;;;16.10;99.90;;;;;;5073891;28;20446;-65
2022/07/11 01:14:34;;;;;;;2.57;1.87;;;16.10;99.90;;;;;;5073379;28;21026;-65
2022/07/11 01:17:01;;;;;;;4.53;1.90;;;16.10;99.90;;;;;;5073531;28;20530;-66
2022/07/11 01:19:28;;;;;;;3.90;1.90;;;16.10;99.90;;;;;;5073161;28;20824;-66
2022/07/11 01:21:59;;;;;;;5.13;2.33;;;16.10;99.90;;;;;;5073037;28;20454;-65
2022/07/11 01:24:27;;;;;;;2.93;2.43;;;16.00;99.90;;;;;;5073838;28;20514;-65
2022/07/11 01:26:55;;;;;;;5.43;2.37;;;16.00;99.90;;;;;;5073141;28;20470;-65
2022/07/11 01:29:23;;;;;;;2.30;1.73;;;16.00;99.90;;;;;;5072891;28;20940;-65
2022/07/11 01:31:50;;;;;;;3.63;2.33;;;16.00;99.90;;;;;;5072352;28;20461;-65
2022/07/11 01:34:17;;;;;;;6.30;2.17;;;16.00;99.90;;;;;;5073486;28;20473;-65
2022/07/11 01:36:44;;;;;;;3.93;2.50;;;16.10;99.90;;;;;;5071004;28;20447;-65
2022/07/11 01:39:10;;;;;;;4.17;2.10;;;16.10;99.90;;;;;;5072615;28;20454;-65
2022/07/11 01:41:39;;;;;;;3.07;2.53;;;16.00;99.90;;;;;;5071628;28;20447;-65
2022/07/11 01:44:05;;;;;;;3.93;2.70;;;16.00;99.90;;;;;;5071460;28;20470;-64
2022/07/11 01:46:32;;;;;;;3.57;2.63;;;16.00;99.90;;;;;;5072006;28;20830;-66
2022/07/11 01:48:59;;;;;;;3.67;2.43;;;16.10;99.90;;;;;;5072471;28;20948;-65
2022/07/11 01:51:26;;;;;;;6.23;2.40;;;16.10;99.90;;;;;;5072349;28;20461;-65
2022/07/11 01:53:55;;;;;;;2.90;2.10;;;16.00;99.90;;;;;;5072505;28;20470;-65
2022/07/11 01:56:22;;;;;;;4.27;2.80;;;15.90;99.90;;;;;;5072672;28;20450;-65
2022/07/11 01:58:50;;;;;;;3.10;2.50;;;16.00;99.90;;;;;;5072601;28;20453;-66
2022/07/11 02:01:17;;;;;;;4.30;2.50;;;15.90;99.90;;;;;;5072267;28;20447;-65
2022/07/11 02:03:44;;;;;;;3.50;2.50;;;16.00;99.90;;;;;;5072594;28;20477;-65
2022/07/11 02:06:11;;;;;;;7.17;3.70;;;16.00;99.90;;;;;;5073005;28;20455;-65
2022/07/11 02:08:37;;;;;;;5.80;3.20;;;16.00;99.90;;;;;;5072843;28;20483;-65
2022/07/11 02:11:04;;;;;;;5.13;3.10;;;16.00;99.90;;;;;;5072402;28;20443;-64
2022/07/11 02:13:31;;;;;;;6.20;3.53;;;16.00;99.90;;;;;;5072714;28;20466;-66
2022/07/11 02:16:00;;;;;;;7.40;3.70;;;16.00;99.90;;;;;;5072550;28;20537;-66
2022/07/11 02:18:26;;;;;;;6.40;3.53;;;16.00;99.90;;;;;;5072076;28;20475;-66
2022/07/11 02:20:53;;;;;;;4.63;3.43;;;16.00;99.90;;;;;;5072175;28;20945;-66
2022/07/11 02:23:21;;;;;;;4.93;3.50;;;16.00;99.90;;;;;;5072293;28;20463;-66
2022/07/11 02:25:48;;;;;;;7.10;3.77;;;16.10;99.90;;;;;;5072530;28;20447;-65
2022/07/11 02:28:16;;;;;;;9.27;3.67;;;16.10;99.90;;;;;;5072253;28;21004;-66
2022/07/11 02:30:45;;;;;;;4.93;3.50;;;16.10;99.90;;;;;;5071649;28;20447;-66
2022/07/11 02:33:15;;;;;;;6.30;4.03;;;16.10;99.90;;;;;;5072243;28;20846;-66
2022/07/11 02:35:42;;;;;;;4.73;3.20;;;16.10;99.90;;;;;;5072126;28;20538;-66
2022/07/11 02:38:09;;;;;;;8.40;4.00;;;16.10;99.90;;;;;;5072061;28;20455;-66
2022/07/11 02:40:36;;;;;;;6.17;3.50;;;16.20;99.90;;;;;;5071505;28;20457;-65
2022/07/11 02:43:03;;;;;;;5.63;3.60;;;16.20;99.90;;;;;;5071575;28;20493;-65
2022/07/11 02:45:30;;;;;;;6.77;4.37;;;16.20;99.90;;;;;;5072000;28;20451;-65
2022/07/11 02:47:57;;;;;;;8.00;3.63;;;16.20;99.90;;;;;;5071696;28;20483;-66
2022/07/11 02:50:25;;;;;;;5.13;3.30;;;16.20;99.90;;;;;;5071262;28;20443;-65
2022/07/11 02:52:51;;;;;;;4.03;2.77;;;16.10;99.90;;;;;;5071490;28;20475;-65
2022/07/11 02:55:18;;;;;;;5.57;3.30;;;16.10;99.90;;;;;;5071698;28;20462;-66
2022/07/11 02:57:45;;;;;;;6.30;3.50;;;16.10;99.90;;;;;;5071572;28;20450;-66
2022/07/11 03:00:15;;;;;;;4.60;3.33;;;16.10;99.90;;;;;;5071534;28;20450;-65
2022/07/11 03:02:42;;;;;;;3.60;3.00;;;16.10;99.90;;;;;;5071583;28;20451;-66
2022/07/11 03:05:09;;;;;;;5.73;3.60;;;16.10;99.90;;;;;;5071794;28;20455;-66
2022/07/11 03:07:37;;;;;;;5.17;3.43;;;16.10;99.90;;;;;;5069813;28;20488;-65
2022/07/11 03:10:05;;;;;;;5.47;3.37;;;16.10;99.90;;;;;;5062186;28;20463;-65
2022/07/11 03:12:32;;;;;;;4.80;3.50;;;16.10;99.90;;;;;;5052528;28;20797;-64
2022/07/11 03:14:59;;;;;;;7.40;3.30;;;16.10;99.90;;;;;;5051072;28;20856;-65
2022/07/11 03:17:26;;;;;;;6.20;3.70;;;16.10;99.90;;;;;;5051259;28;20451;-65
2022/07/11 03:19:53;;;;;;;7.20;4.60;;;16.10;99.90;;;;;;5050804;28;20444;-65
2022/07/11 03:22:19;;;;;;;5.47;3.53;;;16.10;99.90;;;;;;5055840;28;20558;-65
2022/07/11 03:24:47;;;;;;;4.37;3.60;;;16.10;99.90;;;;;;5067192;28;20463;-65
2022/07/11 03:27:14;;;;;;;7.80;3.07;;;16.10;99.90;;;;;;5070095;28;20475;-65
2022/07/11 03:29:41;;;;;;;6.13;3.50;;;16.10;99.90;;;;;;5069833;28;20451;-65
2022/07/11 03:32:08;;;;;;;7.27;3.50;;;16.10;99.90;;;;;;5070844;28;20504;-66
2022/07/11 03:34:36;;;;;;;6.80;3.80;;;16.10;99.90;;;;;;5067451;28;20474;-65
2022/07/11 03:37:03;;;;;;;7.80;3.37;;;16.10;99.90;;;;;;5058804;28;20448;-65
2022/07/11 03:39:29;;;;;;;4.57;2.93;;;16.10;99.90;;;;;;5069627;28;20454;-65
2022/07/11 03:41:58;;;;;;;5.13;3.00;;;16.10;99.90;;;;;;5070517;28;20454;-65
2022/07/11 03:44:25;;;;;;;5.80;3.37;;;16.10;99.90;;;;;;5069695;28;20985;-65
2022/07/11 03:46:52;;;;;;;7.17;3.60;;;16.10;99.90;;;;;;5070386;28;20447;-65
2022/07/11 03:49:18;;;;;;;4.67;3.10;;;16.20;99.90;;;;;;5070537;28;20481;-66
2022/07/11 03:51:45;;;;;;;6.27;3.50;;;16.20;99.90;;;;;;5069964;28;20463;-65
2022/07/11 03:54:12;;;;;;;7.20;4.03;;;16.20;99.90;;;;;;5070412;28;20550;-65
2022/07/11 03:56:39;;;;;;;6.63;3.97;;;16.20;99.90;;;;;;5070917;28;20451;-65
2022/07/11 03:59:07;;;;;;;5.90;3.60;;;16.20;99.90;;;;;;5070285;28;20542;-65
2022/07/11 04:01:34;;;;;;;9.10;4.17;;;16.20;99.90;;;;;;5070072;28;20439;-65
2022/07/11 04:04:00;;;;;;;5.40;3.10;;;16.30;99.90;;;;;;5070278;28;20469;-66
2022/07/11 04:06:28;;;;;;;4.13;3.73;;;16.40;99.90;;;;;;5070161;28;21084;-65
2022/07/11 04:08:55;;;;;;;4.30;3.70;;;16.40;99.90;;;;;;5070232;28;20483;-66
2022/07/11 04:11:21;;;;;;;5.57;3.47;;;16.50;99.90;;;;;;5070347;28;20447;-66
2022/07/11 04:13:48;;;;;;;5.40;3.60;;;16.50;99.90;;;;;;5070276;28;20478;-66
2022/07/11 04:16:16;;;;;;;5.33;3.60;;;16.50;99.90;;;;;;5070427;28;20454;-66
2022/07/11 04:18:43;;;;;;;8.00;3.67;;;16.60;99.90;;;;;;5072598;28;20530;-65
2022/07/11 04:21:10;;;;;;;7.13;3.93;;;16.50;99.90;;;;;;5073313;28;20454;-65
2022/07/11 04:23:38;;;;;;;4.10;3.47;;;16.50;99.90;;;;;;5073885;28;20475;-64
2022/07/11 04:26:05;;;;;;;4.93;3.70;;;16.50;99.90;;;;;;5073270;28;20435;-66
2022/07/11 04:28:32;;;;;;;5.27;3.90;;;16.50;99.90;;;;;;5073167;28;20489;-66
2022/07/11 04:30:59;;;;;;;4.90;3.90;;;16.50;99.90;;;;;;5073711;28;20455;-66
2022/07/11 04:33:27;;;;;;;5.30;3.50;;;16.60;99.90;;;;;;5073183;28;20550;-64
2022/07/11 04:35:54;;;;;;;5.00;3.80;;;16.70;99.90;;;;;;5073710;28;20449;-66
2022/07/11 04:38:21;;;;;;;5.90;3.37;;;16.80;99.90;;;;;;5072354;28;20486;-65
2022/07/11 04:40:48;;;;;;;4.80;3.43;;;16.90;99.90;;;;;;5070744;28;20478;-66
2022/07/11 04:43:15;;;;;;;5.33;3.60;;;16.90;99.90;;;;;;5071074;28;20552;-66
2022/07/11 04:45:42;;;;;;;4.50;3.83;;;17.00;99.90;;;;;;5069582;28;20901;-67
2022/07/11 04:48:09;;;;;;;4.93;3.83;;;17.10;99.90;;;;;;5069436;28;20475;-66
2022/07/11 04:50:37;;;;;;;6.80;4.73;;;17.20;99.90;;;;;;5069424;28;20447;-66
2022/07/11 04:53:04;;;;;;;4.90;3.80;;;17.20;99.90;;;;;;5069687;28;20462;-67
2022/07/11 04:55:31;;;;;;;5.67;3.73;;;17.20;99.90;;;;;;5070397;28;20446;-65
2022/07/11 04:57:58;;;;;;;4.33;3.60;;;17.20;99.90;;;;;;5070282;28;20439;-67
2022/07/11 05:00:24;;;;;;;5.70;3.97;;;17.30;99.90;;;;;;5069920;28;20545;-66
2022/07/11 05:02:51;;;;;;;4.63;3.57;;;17.30;99.90;;;;;;5070269;28;20868;-65
2022/07/11 05:05:19;;;;;;;5.40;3.33;;;17.40;99.90;;;;;;5068745;28;20457;-64
2022/07/11 05:07:47;;;;;;;5.63;4.03;;;17.50;99.90;;;;;;5061790;28;20479;-65
2022/07/11 05:10:15;;;;;;;4.10;3.70;;;17.60;99.90;;;;;;5063821;28;20458;-65
2022/07/11 05:12:42;;;;;;;6.50;3.93;;;17.70;99.90;;;;;;5065842;28;20523;-65
2022/07/11 05:15:09;;;;;;;5.63;3.60;;;17.80;99.90;;;;;;5062887;28;20439;-63
2022/07/11 05:17:36;;;;;;;5.80;3.70;;;17.90;99.90;;;;;;5066212;28;20452;-64
2022/07/11 05:20:04;;;;;;;5.00;3.60;;;18.10;99.90;;;;;;5060061;28;20448;-56
2022/07/11 05:22:31;;;;;;;7.10;4.03;;;18.20;99.90;;;;;;5065066;28;20873;-65
2022/07/11 05:24:59;;;;;;;5.90;4.47;;;18.20;99.90;;;;;;5066728;28;20471;-65
2022/07/11 05:27:26;;;;;;;11.07;4.50;;;18.30;99.90;;;;;;5053740;28;20944;-65
2022/07/11 05:29:56;;;;;;;4.13;3.73;;;18.30;99.90;;;;;;5054374;28;20462;-65
2022/07/11 05:32:23;;;;;;;5.07;4.37;;;18.30;99.90;;;;;;5055638;28;20447;-65
2022/07/11 05:34:49;;;;;;;4.87;4.10;;;18.30;99.90;;;;;;5056276;28;20871;-65
2022/07/11 05:37:16;;;;;;;5.43;3.40;;;18.50;99.90;;;;;;5060155;28;20461;-65
2022/07/11 05:39:43;;;;;;;5.37;3.80;;;18.70;99.90;;;;;;5056305;28;20446;-65
2022/07/11 05:42:11;;;;;;;5.40;4.00;;;18.90;99.90;;;;;;5060779;28;20447;-65
2022/07/11 05:44:38;;;;;;;5.70;3.47;;;19.10;99.90;;;;;;5063980;28;20463;-65
2022/07/11 05:47:05;;;;;;;6.07;4.10;;;19.10;99.90;;;;;;5064851;28;20443;-65
2022/07/11 05:49:32;;;;;;;4.60;4.20;;;19.20;99.90;;;;;;5063769;28;20494;-65
2022/07/11 05:51:59;;;;;;;4.77;3.97;;;19.30;99.90;;;;;;5061382;28;20459;-65
2022/07/11 05:54:26;;;;;;;4.77;3.70;;;19.40;99.90;;;;;;5071599;28;20467;-66
2022/07/11 05:56:53;;;;;;;6.30;3.97;;;19.50;99.90;;;;;;5072338;28;20825;-65
2022/07/11 05:59:21;;;;;;;4.97;3.87;;;19.60;99.90;;;;;;5071881;28;20530;-65
2022/07/11 06:01:48;;;;;;;4.40;3.43;;;19.80;99.90;;;;;;5069631;28;20449;-65
2022/07/11 06:04:15;;;;;;;5.20;4.00;;;19.90;99.90;;;;;;5072237;28;20828;-65
2022/07/11 06:06:42;;;;;;;5.10;3.93;;;20.10;99.90;;;;;;5071816;28;20538;-65
2022/07/11 06:09:08;;;;;;;4.40;4.00;;;20.00;99.90;;;;;;5072281;28;20487;-66
2022/07/11 06:11:34;;;;;;;5.00;3.90;;;20.00;99.90;;;;;;5071978;28;20473;-65
2022/07/11 06:14:01;;;;;;;4.80;3.97;;;20.10;99.90;;;;;;5072293;28;20605;-65
2022/07/11 06:16:30;;;;;;;4.77;4.37;;;20.30;99.90;;;;;;5072192;28;20470;-65
2022/07/11 06:18:56;;;;;;;4.00;3.60;;;20.30;99.90;;;;;;5072049;28;20526;-65
2022/07/11 06:21:23;;;;;;;5.30;4.17;;;20.30;99.90;;;;;;5071758;28;20439;-65
2022/07/11 06:23:50;;;;;;;5.10;3.63;;;20.10;99.90;;;;;;5072218;28;20477;-65
2022/07/11 06:26:17;;;;;;;5.40;4.90;;;20.20;99.90;;;;;;5072093;28;20803;-65
2022/07/11 06:28:44;;;;;;;5.17;4.37;;;20.30;99.90;;;;;;5071941;28;20482;-64
2022/07/11 06:31:12;;;;;;;4.60;4.03;;;20.10;99.90;;;;;;5071538;28;20449;-65
2022/07/11 06:33:40;;;;;;;4.30;3.90;;;20.10;99.90;;;;;;5071731;28;21281;-65
2022/07/11 06:36:07;;;;;;;4.50;4.10;;;20.10;99.90;;;;;;5071699;28;20447;-66
2022/07/11 06:38:35;;;;;;;6.13;4.40;;;20.00;99.90;;;;;;5071996;28;20446;-65
2022/07/11 06:41:02;;;;;;;5.00;4.50;;;19.80;99.90;;;;;;5071348;28;20542;-65
2022/07/11 06:43:29;;;;;;;4.30;3.90;;;19.70;99.90;;;;;;5071664;28;20477;-65
2022/07/11 06:45:56;;;;;;;4.83;4.43;;;19.80;99.90;;;;;;5071543;28;20454;-65
2022/07/11 06:48:23;;;;;;;4.63;4.20;;;20.10;99.90;;;;;;5071719;28;20494;-65
2022/07/11 06:50:51;;;;;;;5.00;4.50;;;20.40;99.90;;;;;;5071476;28;20478;-65
2022/07/11 06:53:18;;;;;;;6.40;4.07;;;20.80;99.90;;;;;;5071409;28;21011;-65
2022/07/11 06:55:44;;;;;;;6.07;4.10;;;21.30;99.90;;;;;;5071643;28;20542;-64
2022/07/11 06:58:12;;;;;;;3.50;3.20;;;21.60;99.90;;;;;;5071561;28;20792;-64
2022/07/11 07:00:38;;;;;;;5.67;4.00;;;21.90;99.90;;;;;;5070992;28;20508;-65
2022/07/11 07:03:05;;;;;;;5.77;4.53;;;21.50;99.90;;;;;;5071065;28;20467;-65
2022/07/11 07:05:33;;;;;;;5.50;4.20;;;21.50;99.90;;;;;;5071359;28;20832;-65
2022/07/11 07:08:01;;;;;;;5.20;3.80;;;21.60;99.90;;;;;;5071026;28;21002;-65
2022/07/11 07:10:28;;;;;;;4.10;3.70;;;21.80;99.90;;;;;;5071246;28;20439;-65
2022/07/11 07:12:54;;;;;;;5.17;3.37;;;22.20;99.90;;;;;;5071096;28;20439;-66
2022/07/11 07:15:21;;;;;;;11.07;4.67;;;22.40;99.90;;;;;;5071222;28;20457;-65
2022/07/11 07:17:48;;;;;;;5.20;4.50;;;22.60;99.90;;;;;;5071053;28;20450;-65
2022/07/11 07:20:15;;;;;;;4.60;3.53;;;22.00;99.90;;;;;;5070719;28;20449;-65
2022/07/11 07:22:41;;;;;;;4.40;4.00;;;21.60;99.90;;;;;;5070841;28;20443;-65
2022/07/11 07:25:10;;;;;;;4.03;3.63;;;21.50;99.90;;;;;;5071010;28;20443;-65
2022/07/11 07:27:37;;;;;;;4.10;3.67;;;21.50;99.90;;;;;;5070933;28;20535;-65
2022/07/11 07:30:04;;;;;;;4.07;3.47;;;21.80;99.90;;;;;;5071275;28;20855;-65
2022/07/11 07:32:31;;;;;;;4.57;3.70;;;22.10;99.90;;;;;;5070690;28;21074;-65
2022/07/11 07:34:58;;;;;;;4.37;3.70;;;22.10;99.90;;;;;;5070630;28;20989;-66
2022/07/11 07:37:26;;;;;;;4.10;3.57;;;22.20;99.90;;;;;;5070608;28;20459;-65
2022/07/11 07:39:53;;;;;;;6.30;3.30;;;22.50;99.90;;;;;;5070392;28;20447;-65
2022/07/11 07:42:21;;;;;;;3.37;3.07;;;22.80;99.90;;;;;;5070747;28;20545;-65
2022/07/11 07:44:48;;;;;;;4.07;3.13;;;22.80;99.90;;;;;;5070639;28;20467;-65
2022/07/11 07:47:15;;;;;;;4.50;2.97;;;23.10;99.90;;;;;;5070423;28;20947;-65
2022/07/11 07:49:41;;;;;;;3.70;2.70;;;23.30;99.90;;;;;;5070655;28;20474;-65
2022/07/11 07:52:08;;;;;;;3.63;2.90;;;23.70;99.90;;;;;;5070272;28;21177;-66
2022/07/11 07:54:35;;;;;;;3.30;3.00;;;23.90;99.90;;;;;;5070372;28;20953;-65
2022/07/11 07:57:02;;;;;;;3.97;2.60;;;24.00;99.90;;;;;;5070816;28;20447;-65
2022/07/11 07:59:30;;;;;;;2.90;2.33;;;24.00;99.90;;;;;;5070418;28;20446;-66
2022/07/11 08:01:56;;;;;;;3.58;2.70;;;24.00;99.90;;;;;;5069832;28;20442;-65
2022/07/11 08:04:22;;;;;;;2.80;2.40;;;23.70;99.90;;;;;;5070283;28;20221;-66
2022/07/11 08:06:49;;;;;;;5.53;2.37;;;23.50;99.90;;;;;;5070374;28;20204;-66
2022/07/11 08:09:16;;;;;;;3.30;2.40;;;23.60;99.90;;;;;;5070096;28;20506;-66
2022/07/11 08:11:43;;;;;;;3.23;2.90;;;23.40;99.90;;;;;;5070010;28;20455;-65
2022/07/11 08:14:10;;;;;;;3.13;2.50;;;23.30;99.90;;;;;;5070338;28;20466;-65
2022/07/11 08:16:38;;;;;;;4.40;2.27;;;23.30;99.90;;;;;;5069806;28;20447;-66
2022/07/11 08:19:06;;;;;;;2.83;2.20;;;23.30;99.90;;;;;;5070182;28;20957;-66
2022/07/11 08:21:34;;;;;;;4.50;2.03;;;23.50;99.90;;;;;;5069911;28;20541;-65
2022/07/11 08:24:02;;;;;;;3.30;2.40;;;23.20;99.90;;;;;;5070019;28;20478;-66
2022/07/11 08:26:29;;;;;;;4.73;2.10;;;23.10;99.90;;;;;;5070158;28;20941;-65
2022/07/11 08:28:56;;;;;;;4.40;2.50;;;23.00;99.90;;;;;;5070253;28;20852;-65
2022/07/11 08:31:23;;;;;;;2.70;2.10;;;22.90;99.90;;;;;;5069760;28;20509;-66
2022/07/11 08:33:52;;;;;;;3.27;2.00;;;23.00;99.90;;;;;;5070125;28;20463;-66
2022/07/11 08:36:19;;;;;;;3.43;1.50;;;23.20;99.90;;;;;;5069923;28;20479;-64
2022/07/11 08:38:47;;;;;;;4.47;2.50;;;23.70;99.90;;;;;;5070404;28;20443;-67
2022/07/11 08:41:16;;;;;;;3.43;2.27;;;23.90;99.90;;;;;;5070121;28;20446;-65
2022/07/11 08:43:43;;;;;;;3.10;2.00;;;24.10;99.90;;;;;;5069830;28;20999;-66
2022/07/11 08:46:12;;;;;;;3.47;2.30;;;24.40;99.90;;;;;;5069882;28;21012;-66
2022/07/11 08:48:40;;;;;;;2.70;2.20;;;24.50;99.90;;;;;;5069888;28;20451;-66
2022/07/11 08:51:09;;;;;;;3.50;2.27;;;24.40;99.90;;;;;;5069614;28;20451;-66
2022/07/11 08:53:41;;;;;;;3.40;2.50;;;24.40;99.70;;;;;;5069689;28;20477;-66
2022/07/11 08:56:14;;;;;;;2.37;2.07;;;24.20;99.20;;;;;;5069881;28;20534;-66
2022/07/11 08:58:46;;;;;;;4.37;1.90;;;23.70;98.90;;;;;;5069724;28;20444;-66
2022/07/11 09:01:16;;;;;;;3.10;1.93;;;23.20;99.80;;;;;;5069543;28;20929;-66
2022/07/11 09:03:44;;;;;;;2.90;2.20;;;22.80;99.90;;;;;;5069655;28;20471;-66
2022/07/11 09:06:13;;;;;;;3.47;2.03;;;22.40;99.90;;;;;;5069661;28;20451;-66
2022/07/11 09:08:40;;;;;;;3.07;1.80;;;22.20;99.90;;;;;;5069358;28;20500;-65
2022/07/11 09:11:07;;;;;;;3.00;2.00;;;21.90;99.90;;;;;;5069153;28;20890;-65
2022/07/11 09:13:34;;;;;;;3.10;1.50;;;22.00;99.90;;;;;;5069529;28;20478;-66
2022/07/11 09:16:06;;;;;;;3.60;1.90;;;22.00;99.90;;;;;;5069712;28;20464;-64
2022/07/11 09:18:34;;;;;;;3.33;1.93;;;22.20;99.90;;;;;;5069355;28;20454;-65
2022/07/11 09:26:44;;;;;;;2.20;1.50;;;22.50;99.90;;;;;;5032865;28;20427;-66
2022/07/11 09:29:12;;;;;;;3.50;2.50;;;23.00;99.90;;;;;;5073196;28;20482;-65
2022/07/11 09:31:42;;;;;;;4.93;1.77;;;23.30;98.40;;;;;;5072977;28;20562;-65
2022/07/11 09:34:10;;;;;;;3.13;1.70;;;23.40;98.10;;;;;;5073275;28;20466;-65
2022/07/11 09:36:39;;;;;;;2.53;1.70;;;23.60;98.40;;;;;;5072892;28;20458;-66
2022/07/11 09:39:09;;;;;;;3.50;1.97;;;23.40;98.30;;;;;;5073339;28;20443;-66
2022/07/11 09:41:37;;;;;;;2.77;1.97;;;23.50;99.90;;;;;;5073328;28;20455;-65
2022/07/11 09:44:16;;;;;;;2.37;1.73;;;23.30;97.90;;;;;;5072995;28;20473;-65
2022/07/11 09:46:45;;;;;;;2.40;1.83;;;23.60;98.90;;;;;;5072955;28;20446;-66
2022/07/11 09:49:12;;;;;;;2.70;1.70;;;24.10;98.20;;;;;;5072748;28;20569;-64
2022/07/11 09:51:41;;;;;;;2.50;2.03;;;24.50;98.10;;;;;;5072511;28;20450;-66
2022/07/11 09:54:10;;;;;;;2.20;1.70;;;24.50;96.70;;;;;;5072985;28;20475;-66
2022/07/11 09:56:40;;;;;;;4.40;2.00;;;24.40;97.10;;;;;;5072771;28;20443;-66
2022/07/11 09:59:09;;;;;;;4.13;1.80;;;25.00;98.40;;;;;;5072731;28;20453;-66
2022/07/11 10:01:36;;;;;;;2.60;1.80;;;25.40;95.80;;;;;;5072161;28;20450;-67
2022/07/11 10:04:05;;;;;;;2.47;1.50;;;25.40;95.40;;;;;;5072252;28;20459;-65
2022/07/11 10:06:31;;;;;;;2.40;1.60;;;25.60;95.10;;;;;;5072737;28;20781;-66
2022/07/11 10:08:58;;;;;;;2.83;1.50;;;25.80;95.80;;;;;;5072746;28;20483;-66
2022/07/11 10:11:26;;;;;;;2.83;1.70;;;26.30;95.00;;;;;;5072440;28;20480;-66
2022/07/11 10:13:54;;;;;;;2.10;1.50;;;27.10;92.20;;;;;;5072326;28;20470;-66
2022/07/11 10:16:32;;;;;;;2.27;1.63;;;26.80;91.50;;;;;;5072166;28;20452;-66
2022/07/11 10:19:12;;;;;;;2.60;1.40;;;26.20;93.20;;;;;;5072424;28;20441;-65
2022/07/11 10:21:46;;;;;;;2.80;1.47;;;26.50;93.50;;;;;;5071844;28;20544;-64
2022/07/11 10:24:28;;;;;;;2.70;1.80;;;26.10;92.90;;;;;;5072315;28;20467;-64
2022/07/11 10:27:02;;;;;;;2.40;1.90;;;26.40;92.60;;;;;;5072068;28;20454;-65
2022/07/11 10:29:36;;;;;;;2.37;1.43;;;26.30;91.90;;;;;;5072017;28;21000;-66
2022/07/11 10:32:08;;;;;;;2.47;1.90;;;26.20;93.10;;;;;;5071932;28;20472;-65
2022/07/11 10:34:35;;;;;;;5.80;1.60;;;26.30;92.70;;;;;;5071910;28;20463;-66
2022/07/11 10:37:04;;;;;;;2.60;1.57;;;25.90;92.60;;;;;;5071949;28;20521;-66
2022/07/11 10:39:32;;;;;;;3.90;2.00;;;25.70;93.00;;;;;;5071320;28;20941;-65
2022/07/11 10:42:01;;;;;;;3.40;1.97;;;25.90;92.70;;;;;;5071706;28;20451;-66
2022/07/11 10:44:47;;;;;;;3.47;1.63;;;25.90;92.60;;;;;;5072185;28;20466;-66
2022/07/11 10:47:33;;;;;;;2.70;1.97;;;25.60;93.20;;;;;;5072022;28;20435;-66
2022/07/11 10:50:03;;;;;;;3.17;1.90;;;25.60;92.70;;;;;;5071465;28;20994;-65
2022/07/11 10:52:36;;;;;;;2.30;1.70;;;25.30;92.50;;;;;;5072001;28;20450;-66
2022/07/11 10:55:15;;;;;;;2.73;1.70;;;25.30;93.20;;;;;;5071720;28;20502;-65
2022/07/11 10:57:55;;;;;;;2.20;1.70;;;25.70;93.40;;;;;;5071666;28;20517;-66
2022/07/11 11:00:22;;;;;;;2.40;1.83;;;26.20;94.30;;;;;;5071316;28;20896;-66
2022/07/11 11:03:11;;;;;;;2.47;1.60;;;26.60;91.30;;;;;;5071639;28;20457;-66
2022/07/11 11:05:52;;;;;;;4.17;1.73;;;26.20;91.90;;;;;;5069926;28;20479;-66
2022/07/11 11:08:42;;;;;;;2.17;1.40;;;26.40;92.20;;;;;;5071564;28;20445;-66
2022/07/11 11:11:38;;;;;;;2.83;1.83;;;26.70;91.70;;;;;;5071216;28;20903;-66
2022/07/11 11:14:25;;;;;;;2.40;1.60;;;26.50;92.20;;;;;;5071390;28;20467;-66
2022/07/11 11:16:53;;;;;;;3.63;1.70;;;26.40;91.80;;;;;;5071383;28;20489;-66
2022/07/11 11:19:51;;;;;;;2.97;1.50;;;26.00;91.20;;;;;;5071324;28;20547;-66
2022/07/11 11:22:19;;;;;;;3.03;1.90;;;25.60;91.60;;;;;;5071363;28;20447;-66
2022/07/11 11:24:47;;;;;;;2.30;1.70;;;25.90;91.80;;;;;;5071366;28;20988;-65
2022/07/11 11:27:18;;;;;;;3.20;2.53;;;26.20;91.60;;;;;;5071288;28;20447;-65
2022/07/11 11:29:47;;;;;;;2.70;1.73;;;26.80;91.30;;;;;;5071017;28;20491;-63
2022/07/11 11:32:14;;;;;;;3.23;1.80;;;27.50;90.50;;;;;;5071182;28;20443;-65
2022/07/11 11:34:41;;;;;;;2.30;1.50;;;28.00;88.60;;;;;;5071284;28;20973;-65
2022/07/11 11:37:09;;;;;;;2.47;1.73;;;28.70;90.70;;;;;;5070976;28;20451;-65
2022/07/11 11:39:38;;;;;;;2.07;1.43;;;29.00;88.40;;;;;;5070816;28;21010;-66
2022/07/11 11:42:08;;;;;;;3.13;1.53;;;29.20;87.70;;;;;;5070785;28;20553;-65
2022/07/11 11:44:47;;;;;;;4.00;1.37;;;29.90;85.70;;;;;;5070813;28;20466;-66
2022/07/11 11:47:16;;;;;;;1.90;1.40;;;31.10;85.20;;;;;;5070799;28;20510;-65
2022/07/11 11:49:44;;;;;;;2.30;1.60;;;31.20;78.50;;;;;;5069911;28;20487;-66
2022/07/11 11:52:12;;;;;;;2.30;1.60;;;31.30;84.10;;;;;;5070504;28;20465;-65
2022/07/11 11:54:40;;;;;;;2.67;1.63;;;31.60;75.20;;;;;;5070747;28;20471;-65
2022/07/11 11:57:08;;;;;;;2.17;1.57;;;30.90;74.70;;;;;;5070610;28;20496;-65
2022/07/11 11:59:35;;;;;;;2.80;2.33;;;29.90;78.80;;;;;;5070415;28;20455;-65
2022/07/11 12:02:02;;;;;;;4.17;1.90;;;29.20;79.10;;;;;;5070163;28;20447;-65
2022/07/11 12:04:33;;;;;;;2.30;1.80;;;28.20;83.00;;;;;;5070362;28;20459;-65
2022/07/11 12:07:02;;;;;;;3.23;1.60;;;27.40;84.70;;;;;;5070546;28;20442;-64
2022/07/11 12:09:49;;;;;;;2.80;1.93;;;26.90;88.10;;;;;;5070360;28;20500;-65
2022/07/11 12:15:04;;;;;;;3.13;2.40;;;27.00;87.40;;;;;;5070118;28;20488;-65
2022/07/11 12:17:31;;;;;;;2.20;1.70;;;27.50;86.30;;;;;;5070018;28;20941;-65
2022/07/11 12:19:59;;;;;;;2.40;1.73;;;28.00;85.20;;;;;;5069881;28;20538;-64
2022/07/11 12:22:27;;;;;;;2.80;2.37;;;28.00;84.90;;;;;;5070150;28;20457;-65
2022/07/11 12:24:55;;;;;;;2.60;2.00;;;28.60;86.00;;;;;;5069856;28;20474;-64
2022/07/11 12:27:24;;;;;;;2.60;2.40;;;28.90;83.30;;;;;;5069948;28;20457;-66
2022/07/11 12:29:51;;;;;;;2.43;1.97;;;28.20;82.10;;;;;;5069613;28;20459;-66
2022/07/11 12:32:19;;;;;;;2.40;1.70;;;28.30;82.70;;;;;;5070203;28;20447;-66
2022/07/11 12:34:47;;;;;;;2.50;1.97;;;28.20;84.10;;;;;;5070103;28;20481;-65
2022/07/11 12:37:17;;;;;;;2.43;1.73;;;27.40;85.50;;;;;;5069847;28;20461;-66
2022/07/11 12:39:51;;;;;;;3.70;2.40;;;26.90;87.70;;;;;;5069728;28;20447;-65
2022/07/11 12:42:26;;;;;;;2.97;2.33;;;26.40;90.30;;;;;;5069726;28;20473;-66
2022/07/11 12:44:59;;;;;;;3.20;2.63;;;26.60;90.20;;;;;;5069982;28;20459;-66
2022/07/11 12:47:27;;;;;;;4.03;2.13;;;27.30;91.70;;;;;;5070036;28;20454;-66
2022/07/11 12:49:55;;;;;;;3.13;1.80;;;27.90;86.60;;;;;;5068773;28;20451;-65
2022/07/11 12:52:24;;;;;;;3.33;2.20;;;28.50;83.30;;;;;;5067729;28;20447;-66
2022/07/11 12:54:52;;;;;;;4.17;3.33;;;28.60;82.00;;;;;;5069290;28;20478;-65
2022/07/11 12:57:21;;;;;;;2.33;1.77;;;27.90;87.00;;;;;;5069756;28;20496;-66
2022/07/11 12:59:48;;;;;;;3.97;2.17;;;27.20;85.80;;;;;;5069353;28;20445;-66
2022/07/11 13:02:16;;;;;;;3.40;2.20;;;27.00;88.00;;;;;;5071448;28;20479;-66